createdAt,value
2018-12-16T00:01:36.941Z,16.97
2018-12-16T00:04:05.225Z,17.53
2018-12-16T00:06:33.555Z,16.10
2018-12-16T00:09:01.889Z,19.60
2018-12-16T00:11:30.183Z,19.10
2018-12-16T00:13:58.429Z,18.67
2018-12-16T00:16:26.753Z,17.87
2018-12-16T00:18:55.142Z,16.87
2018-12-16T00:21:23.495Z,17.63
2018-12-16T00:23:51.769Z,16.97
2018-12-16T00:26:20.015Z,16.43
2018-12-16T00:28:48.312Z,18.17
2018-12-16T00:31:16.664Z,16.23
2018-12-16T00:33:44.937Z,16.63
2018-12-16T00:36:13.197Z,17.03
2018-12-16T00:38:41.451Z,19.03
2018-12-16T00:41:09.714Z,22.23
2018-12-16T00:43:37.940Z,22.40
2018-12-16T00:46:06.218Z,22.60
2018-12-16T00:48:34.896Z,22.13
2018-12-16T00:51:03.158Z,16.57
2018-12-16T00:53:31.517Z,17.67
2018-12-16T00:55:59.736Z,17.17
2018-12-16T00:58:28.014Z,16.73
2018-12-16T01:00:56.313Z,16.90
2018-12-16T01:03:24.583Z,15.50
2018-12-16T01:05:52.916Z,18.23
2018-12-16T01:08:22.036Z,17.80
2018-12-16T01:10:50.336Z,12.93
2018-12-16T01:13:18.557Z,18.90
2018-12-16T01:15:46.797Z,18.33
2018-12-16T01:18:15.100Z,19.40
2018-12-16T01:20:43.657Z,18.63
2018-12-16T01:23:11.998Z,19.97
2018-12-16T01:25:40.213Z,20.07
2018-12-16T01:28:08.529Z,20.37
2018-12-16T01:30:36.819Z,17.07
2018-12-16T01:33:05.043Z,18.87
2018-12-16T01:35:33.282Z,21.57
2018-12-16T01:38:01.608Z,21.23
2018-12-16T01:40:29.928Z,21.33
2018-12-16T01:42:58.330Z,20.57
2018-12-16T01:45:26.590Z,22.60
2018-12-16T01:47:54.980Z,21.00
2018-12-16T01:50:23.308Z,19.63
2018-12-16T01:52:51.656Z,20.30
2018-12-16T01:55:19.908Z,21.73
2018-12-16T01:57:48.225Z,14.97
2018-12-16T02:00:16.530Z,18.33
2018-12-16T02:02:44.987Z,19.17
2018-12-16T02:05:13.352Z,22.37
2018-12-16T02:07:41.662Z,19.47
2018-12-16T02:10:10.774Z,16.93
2018-12-16T02:12:39.112Z,19.97
2018-12-16T02:18:00.828Z,20.47
2018-12-16T02:20:29.146Z,16.63
2018-12-16T02:22:57.555Z,14.43
2018-12-16T02:25:25.782Z,23.27
2018-12-16T02:27:54.040Z,21.00
2018-12-16T02:30:28.509Z,16.80
2018-12-16T02:32:57.015Z,21.10
2018-12-16T02:35:25.329Z,21.33
2018-12-16T02:37:53.601Z,21.73
2018-12-16T02:40:21.862Z,21.80
2018-12-16T02:42:50.295Z,22.23
2018-12-16T02:45:19.417Z,20.73
2018-12-16T02:47:49.201Z,20.90
2018-12-16T02:50:17.467Z,23.20
2018-12-16T02:52:45.723Z,23.40
2018-12-16T02:55:14.019Z,24.50
2018-12-16T02:57:42.264Z,26.10
2018-12-16T03:00:10.749Z,23.63
2018-12-16T03:02:39.088Z,22.30
2018-12-16T03:05:07.418Z,25.27
2018-12-16T03:07:35.686Z,23.30
2018-12-16T03:10:04.277Z,22.87
2018-12-16T03:12:32.593Z,24.70
2018-12-16T03:15:00.915Z,21.80
2018-12-16T03:17:29.187Z,23.60
2018-12-16T03:19:57.413Z,22.37
2018-12-16T03:22:25.630Z,21.40
2018-12-16T03:24:53.891Z,28.77
2018-12-16T03:27:22.215Z,25.03
2018-12-16T03:29:50.464Z,28.10
2018-12-16T03:32:18.810Z,28.00
2018-12-16T03:34:47.191Z,25.40
2018-12-16T03:37:15.434Z,21.70
2018-12-16T03:39:43.689Z,24.97
2018-12-16T03:42:12.130Z,27.47
2018-12-16T03:44:40.446Z,24.30
2018-12-16T03:47:08.698Z,25.17
2018-12-16T03:49:37.040Z,28.20
2018-12-16T03:52:07.276Z,28.50
2018-12-16T03:54:35.815Z,26.53
2018-12-16T03:57:04.282Z,26.87
2018-12-16T03:59:32.514Z,26.40
2018-12-16T04:02:00.761Z,26.03
2018-12-16T04:04:29.098Z,27.10
2018-12-16T04:06:57.299Z,27.40
2018-12-16T04:09:25.590Z,29.63
2018-12-16T04:11:53.972Z,27.60
2018-12-16T04:14:22.223Z,23.97
2018-12-16T04:16:50.471Z,27.30
2018-12-16T04:19:25.167Z,19.67
2018-12-16T04:21:53.513Z,23.93
2018-12-16T04:24:21.784Z,25.00
2018-12-16T04:26:50.035Z,23.80
2018-12-16T04:29:18.283Z,23.23
2018-12-16T04:31:46.595Z,24.73
2018-12-16T04:34:14.830Z,24.03
2018-12-16T04:36:43.058Z,24.90
2018-12-16T04:39:11.298Z,24.37
2018-12-16T04:41:39.508Z,23.83
2018-12-16T04:44:07.736Z,23.10
2018-12-16T04:46:35.981Z,22.30
2018-12-16T04:49:04.285Z,24.50
2018-12-16T04:51:32.521Z,23.50
2018-12-16T04:54:00.847Z,21.93
2018-12-16T04:56:29.164Z,21.33
2018-12-16T04:58:57.409Z,23.00
2018-12-16T05:01:25.630Z,22.10
2018-12-16T05:03:53.942Z,23.23
2018-12-16T05:06:22.153Z,17.57
2018-12-16T05:08:50.383Z,22.30
2018-12-16T05:11:18.617Z,24.13
2018-12-16T05:13:46.856Z,22.73
2018-12-16T05:16:15.111Z,22.63
2018-12-16T05:18:43.389Z,21.57
2018-12-16T05:21:11.642Z,21.63
2018-12-16T05:23:42.020Z,23.40
2018-12-16T05:26:10.156Z,25.13
2018-12-16T05:28:38.495Z,25.33
2018-12-16T05:31:06.711Z,25.33
2018-12-16T05:33:34.958Z,24.97
2018-12-16T05:36:03.176Z,24.30
2018-12-16T05:38:31.515Z,25.17
2018-12-16T05:40:59.732Z,18.47
2018-12-16T05:43:27.954Z,18.97
2018-12-16T05:45:56.396Z,22.60
2018-12-16T05:48:24.636Z,19.57
2018-12-16T05:50:52.844Z,23.77
2018-12-16T05:53:21.088Z,25.27
2018-12-16T05:55:48.383Z,23.63
2018-12-16T05:58:16.650Z,23.57
2018-12-16T06:00:44.946Z,23.13
2018-12-16T06:03:13.165Z,24.07
2018-12-16T06:05:41.384Z,19.33
2018-12-16T06:08:09.616Z,22.73
2018-12-16T06:10:37.882Z,23.17
2018-12-16T06:13:06.121Z,23.77
2018-12-16T06:15:34.373Z,22.80
2018-12-16T06:18:02.665Z,23.63
2018-12-16T06:20:31.065Z,23.90
2018-12-16T06:22:59.294Z,22.90
2018-12-16T06:25:27.508Z,22.97
2018-12-16T06:27:55.748Z,23.87
2018-12-16T06:30:24.718Z,23.23
2018-12-16T06:32:53.004Z,23.53
2018-12-16T06:35:21.356Z,22.93
2018-12-16T06:37:49.629Z,22.30
2018-12-16T06:40:17.881Z,25.10
2018-12-16T06:42:46.125Z,22.50
2018-12-16T06:45:14.491Z,23.03
2018-12-16T06:47:42.799Z,24.87
2018-12-16T06:50:11.009Z,21.23
2018-12-16T06:52:39.445Z,24.77
2018-12-16T06:55:07.747Z,23.43
2018-12-16T06:57:35.995Z,23.97
2018-12-16T07:00:04.889Z,24.97
2018-12-16T07:02:33.161Z,25.53
2018-12-16T07:05:01.512Z,24.57
2018-12-16T07:07:29.774Z,22.93
2018-12-16T07:09:58.023Z,23.50
2018-12-16T07:12:26.340Z,24.90
2018-12-16T07:14:54.637Z,19.07
2018-12-16T07:17:22.877Z,25.57
2018-12-16T07:19:51.221Z,26.13
2018-12-16T07:22:19.491Z,21.97
2018-12-16T07:24:47.841Z,25.63
2018-12-16T07:27:16.222Z,23.83
2018-12-16T07:29:44.585Z,25.83
2018-12-16T07:32:12.924Z,23.23
2018-12-16T07:34:41.400Z,26.07
2018-12-16T07:37:09.757Z,23.70
2018-12-16T07:39:37.992Z,25.40
2018-12-16T07:42:06.428Z,21.10
2018-12-16T07:44:34.920Z,24.77
2018-12-16T07:47:03.386Z,23.30
2018-12-16T07:49:31.623Z,26.30
2018-12-16T07:51:59.826Z,27.30
2018-12-16T07:54:28.128Z,24.37
2018-12-16T07:56:56.390Z,26.60
2018-12-16T07:59:24.703Z,23.47
2018-12-16T08:01:53.048Z,27.67
2018-12-16T08:04:21.264Z,27.10
2018-12-16T08:06:49.509Z,26.97
2018-12-16T08:09:17.810Z,24.80
2018-12-16T08:11:46.164Z,26.00
2018-12-16T08:14:14.449Z,25.17
2018-12-16T08:16:42.673Z,27.53
2018-12-16T08:19:10.963Z,27.03
2018-12-16T08:21:39.549Z,24.97
2018-12-16T08:24:07.845Z,24.70
2018-12-16T08:26:36.117Z,28.27
2018-12-16T08:29:04.469Z,27.17
2018-12-16T08:31:32.817Z,26.00
2018-12-16T08:34:01.080Z,28.30
2018-12-16T08:36:29.335Z,21.20
2018-12-16T08:38:57.586Z,25.17
2018-12-16T08:41:25.841Z,26.17
2018-12-16T08:43:54.160Z,25.37
2018-12-16T08:46:22.448Z,25.87
2018-12-16T08:48:50.678Z,23.37
2018-12-16T08:51:18.894Z,26.63
2018-12-16T08:53:47.133Z,25.07
2018-12-16T08:56:15.518Z,25.17
2018-12-16T08:58:43.781Z,20.93
2018-12-16T09:01:12.014Z,23.60
2018-12-16T09:03:40.362Z,24.10
2018-12-16T09:09:02.422Z,27.03
2018-12-16T09:14:23.589Z,70.27
2018-12-16T09:16:51.872Z,24.03
2018-12-16T09:19:20.200Z,21.80
2018-12-16T09:21:48.566Z,21.90
2018-12-16T09:24:16.821Z,18.93
2018-12-16T09:26:45.137Z,19.43
2018-12-16T09:29:13.455Z,20.77
2018-12-16T09:31:41.762Z,20.37
2018-12-16T09:34:10.301Z,19.43
2018-12-16T09:36:38.876Z,21.30
2018-12-16T09:39:08.217Z,21.37
2018-12-16T09:41:36.593Z,20.17
2018-12-16T09:44:04.964Z,20.20
2018-12-16T09:46:33.392Z,19.67
2018-12-16T09:49:01.761Z,19.50
2018-12-16T09:51:30.097Z,20.43
2018-12-16T09:53:58.358Z,20.67
2018-12-16T09:56:26.653Z,19.33
2018-12-16T09:58:54.926Z,19.87
2018-12-16T10:01:23.194Z,18.77
2018-12-16T10:03:51.457Z,18.10
2018-12-16T10:06:19.742Z,19.23
2018-12-16T10:08:48.271Z,20.60
2018-12-16T10:11:16.577Z,19.07
2018-12-16T10:13:44.829Z,19.30
2018-12-16T10:16:13.088Z,18.83
2018-12-16T10:18:41.312Z,15.57
2018-12-16T10:21:09.685Z,15.57
2018-12-16T10:23:44.823Z,18.90
2018-12-16T10:26:13.111Z,19.53
2018-12-16T10:28:41.393Z,19.00
2018-12-16T10:31:09.652Z,18.83
2018-12-16T10:33:37.977Z,18.97
2018-12-16T10:36:06.447Z,18.93
2018-12-16T10:38:34.719Z,18.23
2018-12-16T10:41:03.044Z,19.50
2018-12-16T10:43:31.451Z,18.87
2018-12-16T10:45:59.873Z,18.17
2018-12-16T10:48:28.164Z,18.53
2018-12-16T10:50:56.447Z,18.97
2018-12-16T10:53:24.852Z,18.73
2018-12-16T10:55:53.216Z,19.97
2018-12-16T10:58:21.475Z,18.93
2018-12-16T11:00:55.213Z,19.10
2018-12-16T11:03:23.733Z,17.90
2018-12-16T11:05:52.022Z,18.90
2018-12-16T11:08:21.181Z,18.87
2018-12-16T11:10:49.436Z,18.90
2018-12-16T11:13:17.699Z,18.23
2018-12-16T11:15:46.034Z,19.17
2018-12-16T11:18:14.305Z,18.07
2018-12-16T11:20:42.560Z,17.67
2018-12-16T11:23:10.806Z,18.93
2018-12-16T11:25:44.119Z,16.67
2018-12-16T11:28:12.335Z,18.83
2018-12-16T11:30:40.622Z,16.50
2018-12-16T11:33:08.926Z,18.33
2018-12-16T11:35:37.712Z,18.53
2018-12-16T11:38:06.389Z,15.87
2018-12-16T11:40:35.168Z,17.10
2018-12-16T11:43:03.692Z,16.87
2018-12-16T11:45:32.386Z,19.50
2018-12-16T11:48:00.891Z,19.77
2018-12-16T11:50:29.206Z,18.97
2018-12-16T11:52:57.473Z,18.20
2018-12-16T11:58:19.035Z,18.73
2018-12-16T12:00:47.744Z,18.40
2018-12-16T12:03:16.186Z,18.27
2018-12-16T12:05:45.326Z,18.53
2018-12-16T12:08:14.853Z,19.80
2018-12-16T12:10:43.927Z,19.77
2018-12-16T12:13:13.167Z,19.87
2018-12-16T12:15:41.781Z,21.60
2018-12-16T12:18:10.191Z,20.07
2018-12-16T12:20:38.612Z,18.60
2018-12-16T12:23:06.945Z,18.27
2018-12-16T12:25:35.810Z,19.53
2018-12-16T12:28:05.223Z,19.87
2018-12-16T12:30:33.897Z,19.97
2018-12-16T12:33:02.316Z,21.30
2018-12-16T12:35:30.856Z,20.70
2018-12-16T12:37:59.381Z,19.37
2018-12-16T12:40:27.728Z,20.13
2018-12-16T12:42:56.150Z,20.00
2018-12-16T12:45:24.608Z,20.13
2018-12-16T12:47:53.322Z,18.57
2018-12-16T12:50:21.684Z,17.90
2018-12-16T12:52:50.041Z,20.63
2018-12-16T12:55:18.327Z,20.43
2018-12-16T12:57:46.629Z,19.53
2018-12-16T13:00:15.664Z,22.10
2018-12-16T13:02:44.274Z,19.17
2018-12-16T13:05:13.108Z,21.57
2018-12-16T13:07:41.391Z,22.53
2018-12-16T13:10:11.745Z,20.83
2018-12-16T13:12:40.602Z,22.10
2018-12-16T13:15:09.096Z,20.40
2018-12-16T13:17:37.356Z,21.27
2018-12-16T13:20:06.228Z,21.93
2018-12-16T13:22:34.671Z,20.80
2018-12-16T13:25:14.471Z,22.40
2018-12-16T13:27:42.718Z,19.67
2018-12-16T13:30:11.128Z,21.30
2018-12-16T13:32:39.373Z,21.40
2018-12-16T13:35:07.713Z,24.57
2018-12-16T13:37:35.967Z,21.77
2018-12-16T13:40:04.510Z,22.90
2018-12-16T13:42:32.825Z,21.60
2018-12-16T13:45:01.078Z,24.07
2018-12-16T13:47:29.315Z,23.20
2018-12-16T13:49:57.619Z,26.77
2018-12-16T13:52:25.923Z,24.83
2018-12-16T13:54:54.213Z,23.77
2018-12-16T13:57:22.512Z,21.73
2018-12-16T13:59:50.750Z,22.57
2018-12-16T14:02:18.991Z,23.27
2018-12-16T14:04:47.417Z,25.03
2018-12-16T14:07:15.774Z,24.03
2018-12-16T14:09:44.069Z,20.30
2018-12-16T14:12:12.588Z,22.77
2018-12-16T14:14:41.111Z,24.30
2018-12-16T14:17:09.483Z,23.20
2018-12-16T14:19:37.921Z,25.23
2018-12-16T14:22:06.320Z,23.83
2018-12-16T14:24:35.290Z,23.97
2018-12-16T14:27:04.638Z,22.10
2018-12-16T14:29:33.350Z,24.27
2018-12-16T14:32:02.125Z,24.53
2018-12-16T14:38:49.575Z,28.57
2018-12-16T14:41:17.916Z,23.20
2018-12-16T14:43:46.253Z,24.00
2018-12-16T14:46:14.545Z,24.93
2018-12-16T14:48:42.846Z,29.10
2018-12-16T14:51:11.212Z,25.20
2018-12-16T14:53:39.680Z,23.90
2018-12-16T14:56:07.981Z,24.73
2018-12-16T14:58:36.457Z,24.30
2018-12-16T15:01:04.800Z,25.03
2018-12-16T15:03:33.968Z,26.07
2018-12-16T15:06:02.404Z,26.70
2018-12-16T15:08:30.756Z,26.00
2018-12-16T15:11:06.239Z,31.63
2018-12-16T15:13:34.712Z,31.93
2018-12-16T15:16:03.015Z,36.17
2018-12-16T15:18:31.429Z,26.47
2018-12-16T15:20:59.687Z,26.87
2018-12-16T15:23:27.974Z,32.07
2018-12-16T15:26:02.029Z,30.03
2018-12-16T15:28:26.585Z,29.23
2018-12-16T15:30:55.903Z,37.17
2018-12-16T15:33:24.969Z,29.83
2018-12-16T15:35:53.471Z,34.23
2018-12-16T15:38:21.867Z,30.23
2018-12-16T15:40:56.371Z,32.90
2018-12-16T15:43:25.020Z,31.60
2018-12-16T15:45:53.504Z,28.50
2018-12-16T15:48:21.834Z,24.83
2018-12-16T15:50:50.157Z,26.03
2018-12-16T15:53:18.635Z,26.03
2018-12-16T15:55:46.945Z,24.77
2018-12-16T15:58:15.195Z,27.00
2018-12-16T16:00:43.513Z,25.63
2018-12-16T16:03:11.905Z,28.20
2018-12-16T16:05:40.404Z,28.37
2018-12-16T16:08:08.675Z,23.60
2018-12-16T16:10:37.165Z,23.70
2018-12-16T16:13:05.475Z,25.83
2018-12-16T16:15:33.784Z,24.87
2018-12-16T16:18:02.144Z,28.53
2018-12-16T16:20:30.511Z,30.53
2018-12-16T16:22:58.826Z,27.20
2018-12-16T16:25:27.098Z,34.83
2018-12-16T16:27:55.368Z,26.33
2018-12-16T16:30:23.664Z,24.30
2018-12-16T16:32:52.000Z,32.37
2018-12-16T16:35:20.258Z,26.33
2018-12-16T16:37:49.067Z,27.17
2018-12-16T16:40:17.804Z,34.63
2018-12-16T16:42:46.196Z,32.40
2018-12-16T16:45:21.244Z,28.73
2018-12-16T16:47:49.593Z,26.70
2018-12-16T16:50:17.975Z,28.13
2018-12-16T16:52:46.222Z,26.43
2018-12-16T16:55:14.640Z,25.87
2018-12-16T16:57:43.105Z,28.57
2018-12-16T17:00:11.580Z,24.30
2018-12-16T17:02:39.871Z,30.13
2018-12-16T17:05:08.195Z,27.27
2018-12-16T17:07:36.495Z,27.23
2018-12-16T17:10:05.916Z,30.23
2018-12-16T17:12:34.322Z,32.33
2018-12-16T17:15:02.983Z,28.77
2018-12-16T17:20:24.565Z,25.53
2018-12-16T17:25:48.383Z,27.10
2018-12-16T17:28:15.910Z,26.97
2018-12-16T17:30:44.231Z,32.50
2018-12-16T17:33:12.514Z,32.77
2018-12-16T17:35:40.847Z,33.40
2018-12-16T17:38:09.174Z,27.40
2018-12-16T17:40:37.492Z,26.87
2018-12-16T17:43:05.964Z,27.47
2018-12-16T17:45:34.235Z,26.13
2018-12-16T17:50:55.625Z,24.73
2018-12-16T17:56:16.830Z,23.47
2018-12-16T17:58:45.127Z,27.03
2018-12-16T18:01:13.424Z,28.23
2018-12-16T18:03:42.131Z,28.80
2018-12-16T18:06:10.538Z,28.40
2018-12-16T18:08:38.828Z,30.97
2018-12-16T18:11:07.143Z,31.97
2018-12-16T18:13:35.447Z,31.20
2018-12-16T18:16:03.729Z,30.67
2018-12-16T18:18:32.082Z,33.00
2018-12-16T18:21:00.336Z,30.47
2018-12-16T18:23:29.827Z,33.83
2018-12-16T18:25:58.455Z,28.90
2018-12-16T18:28:26.926Z,27.30
2018-12-16T18:30:55.324Z,28.57
2018-12-16T18:33:27.273Z,26.73
2018-12-16T18:35:55.592Z,28.73
2018-12-16T18:38:23.947Z,29.17
2018-12-16T18:40:52.227Z,26.00
2018-12-16T18:43:20.581Z,28.83
2018-12-16T18:45:48.856Z,26.60
2018-12-16T18:48:17.151Z,25.87
2018-12-16T18:50:46.218Z,26.90
2018-12-16T18:53:14.448Z,27.53
2018-12-16T18:55:42.735Z,26.33
2018-12-16T18:58:11.015Z,28.97
2018-12-16T19:00:39.434Z,32.80
2018-12-16T19:03:07.780Z,30.70
2018-12-16T19:05:36.263Z,30.37
2018-12-16T19:08:04.753Z,28.77
2018-12-16T19:10:34.397Z,26.03
2018-12-16T19:15:35.963Z,26.17
2018-12-16T19:18:04.824Z,25.23
2018-12-16T19:20:33.491Z,25.10
2018-12-16T19:23:01.760Z,24.97
2018-12-16T19:25:30.127Z,24.60
2018-12-16T19:27:58.487Z,27.07
2018-12-16T19:30:26.881Z,26.37
2018-12-16T19:32:55.162Z,26.97
2018-12-16T19:35:23.537Z,28.97
2018-12-16T19:37:51.898Z,27.33
2018-12-16T19:40:20.239Z,26.13
2018-12-16T19:42:49.170Z,31.03
2018-12-16T19:45:17.598Z,35.17
2018-12-16T19:47:49.567Z,30.30
2018-12-16T19:50:16.392Z,29.83
2018-12-16T19:52:44.659Z,30.03
2018-12-16T19:58:05.700Z,26.40
2018-12-16T20:00:34.065Z,28.53
2018-12-16T20:03:02.561Z,25.93
2018-12-16T20:05:32.959Z,26.63
2018-12-16T20:08:01.324Z,28.07
2018-12-16T20:10:29.570Z,26.40
2018-12-16T20:12:57.896Z,27.67
2018-12-16T20:15:26.254Z,27.50
2018-12-16T20:17:54.946Z,27.83
2018-12-16T20:20:23.243Z,32.07
2018-12-16T20:22:51.934Z,30.00
2018-12-16T20:25:20.313Z,29.00
2018-12-16T20:27:48.635Z,28.83
2018-12-16T20:30:17.070Z,30.80
2018-12-16T20:32:45.368Z,30.50
2018-12-16T20:35:14.020Z,27.93
2018-12-16T20:37:43.055Z,30.33
2018-12-16T20:40:11.504Z,30.73
2018-12-16T20:42:39.933Z,30.17
2018-12-16T20:45:08.379Z,28.40
2018-12-16T20:47:36.911Z,29.30
2018-12-16T20:50:06.800Z,29.67
2018-12-16T20:52:35.407Z,28.83
2018-12-16T20:55:05.769Z,28.27
2018-12-16T20:57:34.365Z,30.40
2018-12-16T21:00:02.841Z,29.57
2018-12-16T21:02:34.515Z,27.00
2018-12-16T21:05:03.115Z,29.60
2018-12-16T21:07:32.092Z,29.43
2018-12-16T21:10:01.052Z,28.40
2018-12-16T21:12:35.107Z,31.00
2018-12-16T21:15:08.997Z,29.13
2018-12-16T21:17:43.012Z,30.07
2018-12-16T21:20:11.765Z,29.43
2018-12-16T21:22:40.208Z,32.23
2018-12-16T21:25:08.679Z,30.77
2018-12-16T21:27:37.450Z,30.83
2018-12-16T21:30:06.719Z,29.77
2018-12-16T21:32:35.126Z,30.37
2018-12-16T21:35:03.728Z,31.03
2018-12-16T21:37:33.217Z,30.03
2018-12-16T21:40:01.730Z,28.00
2018-12-16T21:42:30.394Z,28.90
2018-12-16T21:44:58.796Z,30.03
2018-12-16T21:47:27.105Z,31.50
2018-12-16T21:49:55.418Z,30.50
2018-12-16T21:52:23.707Z,29.83
2018-12-16T21:54:52.184Z,30.27
2018-12-16T21:57:20.495Z,30.40
2018-12-16T21:59:49.403Z,30.30
2018-12-16T22:02:17.879Z,30.67
2018-12-16T22:04:46.315Z,32.07
2018-12-16T22:07:14.760Z,36.20
2018-12-16T22:09:43.190Z,32.13
2018-12-16T22:12:11.601Z,31.10
2018-12-16T22:14:40.000Z,30.57
2018-12-16T22:17:08.422Z,31.13
2018-12-16T22:19:36.790Z,32.77
2018-12-16T22:22:05.709Z,31.00
2018-12-16T22:24:34.119Z,30.37
2018-12-16T22:27:02.515Z,30.23
2018-12-16T22:29:30.812Z,30.17
2018-12-16T22:31:59.616Z,31.63
2018-12-16T22:34:28.810Z,30.77
2018-12-16T22:36:57.155Z,30.57
2018-12-16T22:39:25.623Z,29.60
2018-12-16T22:41:54.794Z,33.87
2018-12-16T22:44:23.075Z,32.53
2018-12-16T22:46:52.372Z,31.40
2018-12-16T22:49:20.797Z,32.67
2018-12-16T22:51:49.184Z,31.23
2018-12-16T22:54:17.576Z,30.63
2018-12-16T22:56:45.995Z,30.20
2018-12-16T22:59:14.314Z,30.37
2018-12-16T23:01:42.756Z,30.03
2018-12-16T23:04:11.440Z,30.30
2018-12-16T23:06:39.769Z,28.63
2018-12-16T23:09:08.380Z,30.73
2018-12-16T23:11:36.696Z,29.23
2018-12-16T23:14:05.322Z,31.00
2018-12-16T23:16:33.619Z,30.13
2018-12-16T23:19:02.023Z,32.10
2018-12-16T23:21:30.253Z,30.40
2018-12-16T23:23:58.517Z,29.23
2018-12-16T23:26:26.913Z,29.70
2018-12-16T23:28:55.197Z,30.43
2018-12-16T23:31:23.556Z,32.57
2018-12-16T23:33:51.840Z,33.60
2018-12-16T23:36:20.085Z,30.43
2018-12-16T23:38:48.393Z,30.70
2018-12-16T23:41:16.692Z,29.07
2018-12-16T23:43:44.985Z,30.67
2018-12-16T23:46:13.273Z,30.50
2018-12-16T23:48:41.497Z,30.33
2018-12-16T23:51:09.813Z,30.33
2018-12-16T23:53:38.097Z,30.97
2018-12-16T23:56:06.510Z,31.53
2018-12-16T23:58:34.832Z,29.83
